createdAt,value
2019-05-02T00:01:30.235Z,50.70
2019-05-02T00:03:04.550Z,50.75
2019-05-02T00:04:36.321Z,52.15
2019-05-02T00:06:09.328Z,53.80
2019-05-02T00:07:42.240Z,55.95
2019-05-02T00:09:14.964Z,55.15
2019-05-02T00:10:47.678Z,55.28
2019-05-02T00:12:19.891Z,57.93
2019-05-02T00:13:52.605Z,52.78
2019-05-02T00:15:25.137Z,55.92
2019-05-02T00:16:57.484Z,55.40
2019-05-02T00:18:31.970Z,56.25
2019-05-02T00:20:06.832Z,59.83
2019-05-02T00:21:42.716Z,57.55
2019-05-02T00:23:13.307Z,57.78
2019-05-02T00:24:46.422Z,59.77
2019-05-02T00:26:18.516Z,62.85
2019-05-02T00:27:50.744Z,63.20
2019-05-02T00:29:23.742Z,63.63
2019-05-02T00:30:57.106Z,60.92
2019-05-02T00:32:29.204Z,60.78
2019-05-02T00:34:01.347Z,62.43
2019-05-02T00:35:33.560Z,62.13
2019-05-02T00:37:05.756Z,63.33
2019-05-02T00:38:39.751Z,65.83
2019-05-02T00:40:12.593Z,65.25
2019-05-02T00:41:44.694Z,67.67
2019-05-02T00:43:16.934Z,70.10
2019-05-02T00:44:49.192Z,72.42
2019-05-02T00:46:21.576Z,67.50
2019-05-02T00:48:00.561Z,66.60
2019-05-02T00:49:35.538Z,66.53
2019-05-02T00:51:06.818Z,72.72
2019-05-02T00:52:38.968Z,69.40
2019-05-02T00:54:11.100Z,74.53
2019-05-02T00:55:43.329Z,73.00
2019-05-02T00:57:19.937Z,73.97
2019-05-02T00:58:49.454Z,68.85
2019-05-02T01:00:22.006Z,78.40
2019-05-02T01:02:29.000Z,75.28
2019-05-02T01:04:06.295Z,73.15
2019-05-02T01:05:40.267Z,73.35
2019-05-02T01:07:12.905Z,75.15
2019-05-02T01:08:45.030Z,78.12
2019-05-02T01:10:21.189Z,74.27
2019-05-02T01:11:51.566Z,74.77
2019-05-02T01:13:23.796Z,74.47
2019-05-02T01:14:55.893Z,69.80
2019-05-02T01:16:28.091Z,74.95
2019-05-02T01:18:01.030Z,73.75
2019-05-02T01:19:34.288Z,73.92
2019-05-02T01:21:06.527Z,74.55
2019-05-02T01:22:38.679Z,70.90
2019-05-02T01:24:10.751Z,74.17
2019-05-02T01:25:47.236Z,73.75
2019-05-02T01:27:41.272Z,69.60
2019-05-02T01:29:19.466Z,74.10
2019-05-02T01:31:13.286Z,70.65
2019-05-02T01:33:01.312Z,71.50
2019-05-02T01:34:40.284Z,77.65
2019-05-02T01:36:32.080Z,72.10
2019-05-02T01:38:21.569Z,72.05
2019-05-02T01:39:53.757Z,69.92
2019-05-02T01:41:29.204Z,75.78
2019-05-02T01:43:19.802Z,71.60
2019-05-02T01:44:52.249Z,78.30
2019-05-02T01:46:24.485Z,72.92
2019-05-02T01:47:56.736Z,71.80
2019-05-02T01:49:28.974Z,71.95
2019-05-02T01:51:04.560Z,78.00
2019-05-02T01:52:35.074Z,77.10
2019-05-02T01:54:10.184Z,76.37
2019-05-02T01:55:41.257Z,77.62
2019-05-02T01:57:13.367Z,75.12
2019-05-02T01:58:45.631Z,77.97
2019-05-02T02:00:17.992Z,74.27
2019-05-02T02:01:53.269Z,77.87
2019-05-02T02:03:24.220Z,78.20
2019-05-02T02:04:56.908Z,76.85
2019-05-02T02:06:30.216Z,82.17
2019-05-02T02:08:02.360Z,78.30
2019-05-02T02:09:34.608Z,77.65
2019-05-02T02:11:08.664Z,82.40
2019-05-02T02:12:41.211Z,85.00
2019-05-02T02:14:18.375Z,87.25
2019-05-02T02:15:49.018Z,81.92
2019-05-02T02:17:21.273Z,82.22
2019-05-02T02:19:03.999Z,83.97
2019-05-02T02:20:45.124Z,82.85
2019-05-02T02:22:33.926Z,84.35
2019-05-02T02:24:08.877Z,82.78
2019-05-02T02:25:48.608Z,86.95
2019-05-02T02:27:24.603Z,84.70
2019-05-02T02:28:56.228Z,81.67
2019-05-02T02:30:28.334Z,87.12
2019-05-02T02:32:00.450Z,85.12
2019-05-02T02:33:32.726Z,83.78
2019-05-02T02:35:09.909Z,87.50
2019-05-02T02:36:39.759Z,89.15
2019-05-02T02:38:12.051Z,86.22
2019-05-02T02:39:48.400Z,84.77
2019-05-02T02:41:18.317Z,77.27
2019-05-02T02:42:50.726Z,77.87
2019-05-02T02:44:39.947Z,88.05
2019-05-02T02:46:19.775Z,89.22
2019-05-02T02:47:52.957Z,88.82
2019-05-02T02:49:25.952Z,88.62
2019-05-02T02:50:58.189Z,88.72
2019-05-02T02:52:30.285Z,97.20
2019-05-02T02:54:03.870Z,96.05
2019-05-02T02:55:36.670Z,88.47
2019-05-02T02:57:20.591Z,89.80
2019-05-02T02:58:47.888Z,93.90
2019-05-02T03:00:17.390Z,93.75
2019-05-02T03:01:49.648Z,95.75
2019-05-02T03:03:28.020Z,95.57
2019-05-02T03:04:55.894Z,101.35
2019-05-02T03:06:28.146Z,99.00
2019-05-02T03:08:05.505Z,97.90
2019-05-02T03:09:34.476Z,102.10
2019-05-02T03:11:06.954Z,97.65
2019-05-02T03:13:04.740Z,109.27
2019-05-02T03:14:47.187Z,103.65
2019-05-02T03:16:18.425Z,106.22
2019-05-02T03:17:50.540Z,106.80
2019-05-02T03:19:23.296Z,107.72
2019-05-02T03:20:55.570Z,110.20
2019-05-02T03:22:27.677Z,107.83
2019-05-02T03:24:03.205Z,108.90
2019-05-02T03:25:49.717Z,107.70
2019-05-02T03:27:08.027Z,107.55
2019-05-02T03:28:40.286Z,111.57
2019-05-02T03:30:29.270Z,108.87
2019-05-02T03:31:46.543Z,103.10
2019-05-02T03:33:18.958Z,101.27
2019-05-02T03:34:53.644Z,108.92
2019-05-02T03:36:30.072Z,107.47
2019-05-02T03:38:00.308Z,113.12
2019-05-02T03:39:32.564Z,112.17
2019-05-02T03:41:04.663Z,114.95
2019-05-02T03:42:44.809Z,116.05
2019-05-02T03:44:24.617Z,113.97
2019-05-02T03:45:46.307Z,115.10
2019-05-02T03:47:18.539Z,117.22
2019-05-02T03:48:50.819Z,115.45
2019-05-02T03:50:31.393Z,115.77
2019-05-02T03:52:03.095Z,115.12
2019-05-02T03:53:32.106Z,114.70
2019-05-02T03:55:04.191Z,113.75
2019-05-02T03:56:36.256Z,113.03
2019-05-02T03:58:14.041Z,110.40
2019-05-02T03:59:42.513Z,117.10
2019-05-02T04:01:14.679Z,106.58
2019-05-02T04:02:58.902Z,109.20
2019-05-02T04:04:22.761Z,117.15
2019-05-02T04:05:55.125Z,113.68
2019-05-02T04:07:27.553Z,113.25
2019-05-02T04:09:01.885Z,114.12
2019-05-02T04:11:11.699Z,108.72
2019-05-02T04:12:44.266Z,117.42
2019-05-02T04:14:36.608Z,102.97
2019-05-02T04:15:50.493Z,113.83
2019-05-02T04:17:28.534Z,112.80
2019-05-02T04:18:58.380Z,107.72
2019-05-02T04:20:30.778Z,115.75
2019-05-02T04:22:08.679Z,118.67
2019-05-02T04:23:37.755Z,111.17
2019-05-02T04:25:10.096Z,113.32
2019-05-02T04:26:52.626Z,113.65
2019-05-02T04:28:16.597Z,120.15
2019-05-02T04:29:48.756Z,115.47
2019-05-02T04:31:24.687Z,111.72
2019-05-02T04:32:55.833Z,116.10
2019-05-02T04:34:28.379Z,125.60
2019-05-02T04:36:00.620Z,120.50
2019-05-02T04:37:34.491Z,123.07
2019-05-02T04:39:12.708Z,109.55
2019-05-02T04:40:46.362Z,112.55
2019-05-02T04:42:19.693Z,118.20
2019-05-02T04:43:55.910Z,111.50
2019-05-02T04:45:29.706Z,123.00
2019-05-02T04:47:02.772Z,118.75
2019-05-02T04:48:34.809Z,105.07
2019-05-02T04:50:07.626Z,114.08
2019-05-02T04:51:39.797Z,120.77
2019-05-02T04:53:11.988Z,108.40
2019-05-02T04:54:44.102Z,110.45
2019-05-02T04:56:18.521Z,113.68
2019-05-02T04:57:51.070Z,114.62
2019-05-02T04:59:23.562Z,113.35
2019-05-02T05:01:01.066Z,118.45
2019-05-02T05:02:36.720Z,112.32
2019-05-02T05:04:03.984Z,120.22
2019-05-02T05:05:40.005Z,119.57
2019-05-02T05:07:10.408Z,112.08
2019-05-02T05:08:42.692Z,113.92
2019-05-02T05:10:14.816Z,123.85
2019-05-02T05:11:48.182Z,109.12
2019-05-02T05:13:23.279Z,119.60
2019-05-02T05:14:54.623Z,116.60
2019-05-02T05:16:28.620Z,116.35
2019-05-02T05:18:04.566Z,109.30
2019-05-02T05:19:34.860Z,109.65
2019-05-02T05:21:10.255Z,113.77
2019-05-02T05:22:44.148Z,113.45
2019-05-02T05:24:42.308Z,117.50
2019-05-02T05:26:13.602Z,114.65
2019-05-02T05:27:47.844Z,115.45
2019-05-02T05:29:23.233Z,119.05
2019-05-02T05:30:53.910Z,121.45
2019-05-02T05:32:28.054Z,111.47
2019-05-02T05:34:00.068Z,119.20
2019-05-02T05:35:32.221Z,115.90
2019-05-02T05:37:09.400Z,110.25
2019-05-02T05:38:40.624Z,113.97
2019-05-02T05:40:14.627Z,119.30
2019-05-02T05:41:50.862Z,118.67
2019-05-02T05:43:21.049Z,113.42
2019-05-02T05:44:53.344Z,113.83
2019-05-02T05:46:27.758Z,114.15
2019-05-02T05:48:01.085Z,121.50
2019-05-02T05:49:33.629Z,111.77
2019-05-02T05:51:07.282Z,112.88
2019-05-02T05:52:42.437Z,116.30
2019-05-02T05:54:13.834Z,119.80
2019-05-02T05:55:47.329Z,121.00
2019-05-02T05:57:21.208Z,117.22
2019-05-02T05:58:53.517Z,119.62
2019-05-02T06:00:27.654Z,118.15
2019-05-02T06:02:00.091Z,114.28
2019-05-02T06:03:34.052Z,121.25
2019-05-02T06:05:07.904Z,124.25
2019-05-02T06:06:40.232Z,123.18
2019-05-02T06:08:13.839Z,116.77
2019-05-02T06:09:47.855Z,118.82
2019-05-02T06:11:21.847Z,115.75
2019-05-02T06:12:54.153Z,117.28
2019-05-02T06:14:26.523Z,115.65
2019-05-02T06:16:02.620Z,118.72
2019-05-02T06:17:32.869Z,117.22
2019-05-02T06:19:05.160Z,118.53
2019-05-02T06:20:37.275Z,116.90
2019-05-02T06:22:09.443Z,118.22
2019-05-02T06:23:41.723Z,114.17
2019-05-02T06:25:16.013Z,119.42
2019-05-02T06:26:49.978Z,116.45
2019-05-02T06:28:22.290Z,111.17
2019-05-02T06:29:56.078Z,112.12
2019-05-02T06:31:29.079Z,117.30
2019-05-02T06:33:01.275Z,112.83
2019-05-02T06:34:33.543Z,117.97
2019-05-02T06:36:05.647Z,119.77
2019-05-02T06:37:40.587Z,117.75
2019-05-02T06:39:12.239Z,118.70
2019-05-02T06:40:46.482Z,117.17
2019-05-02T06:42:18.525Z,117.30
2019-05-02T06:43:50.786Z,118.20
2019-05-02T06:45:23.141Z,115.65
2019-05-02T06:46:59.188Z,114.32
2019-05-02T06:48:30.504Z,115.10
2019-05-02T06:50:03.262Z,115.35
2019-05-02T06:51:35.476Z,115.88
2019-05-02T06:53:09.539Z,112.80
2019-05-02T06:54:41.782Z,112.30
2019-05-02T06:56:14.114Z,115.28
2019-05-02T06:57:46.398Z,112.42
2019-05-02T06:59:20.261Z,113.50
2019-05-02T07:00:57.999Z,109.95
2019-05-02T07:02:28.223Z,115.90
2019-05-02T07:04:04.125Z,108.75
2019-05-02T07:05:35.764Z,117.13
2019-05-02T07:07:08.027Z,109.27
2019-05-02T07:08:40.383Z,108.92
2019-05-02T07:10:12.959Z,105.05
2019-05-02T07:11:56.624Z,108.65
2019-05-02T07:13:19.468Z,107.00
2019-05-02T07:14:56.089Z,110.45
2019-05-02T07:16:45.337Z,108.90
2019-05-02T07:18:18.043Z,103.87
2019-05-02T07:19:53.166Z,104.32
2019-05-02T07:21:25.280Z,111.30
2019-05-02T07:22:57.407Z,106.27
2019-05-02T07:24:30.739Z,103.92
2019-05-02T07:26:03.528Z,105.90
2019-05-02T07:27:35.816Z,105.63
2019-05-02T07:29:07.939Z,108.40
2019-05-02T07:30:40.255Z,109.35
2019-05-02T07:32:12.518Z,107.87
2019-05-02T07:33:44.740Z,113.35
2019-05-02T07:35:19.374Z,106.05
2019-05-02T07:36:51.028Z,108.00
2019-05-02T07:38:25.770Z,108.70
2019-05-02T07:39:57.140Z,108.55
2019-05-02T07:41:30.280Z,104.57
2019-05-02T07:43:02.604Z,108.97
2019-05-02T07:44:34.975Z,105.73
2019-05-02T07:46:07.207Z,109.10
2019-05-02T07:47:40.341Z,102.73
2019-05-02T07:49:13.496Z,109.10
2019-05-02T07:50:46.556Z,106.53
2019-05-02T07:52:19.948Z,103.30
2019-05-02T07:53:55.171Z,102.80
2019-05-02T07:55:26.156Z,104.63
2019-05-02T07:56:58.269Z,105.30
2019-05-02T07:58:30.361Z,104.43
2019-05-02T08:00:03.061Z,103.90
2019-05-02T08:01:35.302Z,100.13
2019-05-02T08:03:07.608Z,98.30
2019-05-02T08:04:43.547Z,96.90
2019-05-02T08:06:14.016Z,102.80
2019-05-02T08:07:46.160Z,95.27
2019-05-02T08:09:18.404Z,102.97
2019-05-02T08:10:53.373Z,97.23
2019-05-02T08:12:24.728Z,101.17
2019-05-02T08:14:00.315Z,104.03
2019-05-02T08:15:31.305Z,98.77
2019-05-02T08:17:05.676Z,98.73
2019-05-02T08:18:37.821Z,98.13
2019-05-02T08:20:13.750Z,98.50
2019-05-02T08:21:44.234Z,96.07
2019-05-02T08:23:20.437Z,98.47
2019-05-02T08:24:50.602Z,102.80
2019-05-02T08:26:23.515Z,94.80
2019-05-02T08:28:16.040Z,103.23
2019-05-02T08:29:48.698Z,99.43
2019-05-02T08:31:21.005Z,97.10
2019-05-02T08:32:53.378Z,101.40
2019-05-02T08:34:30.014Z,98.73
2019-05-02T08:36:02.272Z,93.30
2019-05-02T08:37:35.412Z,96.73
2019-05-02T08:39:08.598Z,97.33
2019-05-02T08:40:42.323Z,97.07
2019-05-02T08:42:15.070Z,93.60
2019-05-02T08:43:47.243Z,96.70
2019-05-02T08:45:19.472Z,102.73
2019-05-02T08:46:53.259Z,97.73
2019-05-02T08:48:25.663Z,97.53
2019-05-02T08:49:57.978Z,103.17
2019-05-02T08:51:30.104Z,98.60
2019-05-02T08:53:02.167Z,99.03
2019-05-02T08:54:34.298Z,97.87
2019-05-02T08:56:06.548Z,96.23
2019-05-02T08:57:38.726Z,98.50
2019-05-02T08:59:11.004Z,102.63
2019-05-02T09:00:43.618Z,101.00
2019-05-02T09:02:15.870Z,99.73
2019-05-02T09:03:55.474Z,96.27
2019-05-02T09:05:22.292Z,91.47
2019-05-02T09:06:58.636Z,94.37
2019-05-02T09:08:28.424Z,95.70
2019-05-02T09:10:05.926Z,94.43
2019-05-02T09:11:34.937Z,98.63
2019-05-02T09:13:07.040Z,93.10
2019-05-02T09:14:39.242Z,95.60
2019-05-02T09:16:12.092Z,94.80
2019-05-02T09:17:51.745Z,97.07
2019-05-02T09:19:21.190Z,97.30
2019-05-02T09:20:56.510Z,90.00
2019-05-02T09:22:26.863Z,96.17
2019-05-02T09:23:59.044Z,94.10
2019-05-02T09:25:32.434Z,97.10
2019-05-02T09:27:04.805Z,97.87
2019-05-02T09:28:36.894Z,90.37
2019-05-02T09:30:12.073Z,93.33
2019-05-02T09:31:46.044Z,96.97
2019-05-02T09:33:18.301Z,93.03
2019-05-02T09:34:51.827Z,91.67
2019-05-02T09:36:24.365Z,85.40
2019-05-02T09:37:56.468Z,88.23
2019-05-02T09:39:32.708Z,91.83
2019-05-02T09:41:15.351Z,96.23
2019-05-02T09:42:36.999Z,89.80
2019-05-02T09:44:14.552Z,90.40
2019-05-02T09:45:43.943Z,90.03
2019-05-02T09:47:27.413Z,89.40
2019-05-02T09:49:02.837Z,88.90
2019-05-02T09:50:34.364Z,85.67
2019-05-02T09:52:05.753Z,86.43
2019-05-02T09:53:37.970Z,90.33
2019-05-02T09:55:12.214Z,85.97
2019-05-02T09:56:44.579Z,87.17
2019-05-02T09:58:21.272Z,80.83
2019-05-02T09:59:54.757Z,82.17
2019-05-02T10:01:37.910Z,79.80
2019-05-02T10:03:12.053Z,76.97
2019-05-02T10:04:44.483Z,84.33
2019-05-02T10:06:18.290Z,80.93
2019-05-02T10:07:52.444Z,83.27
2019-05-02T10:09:27.179Z,81.03
2019-05-02T10:10:59.092Z,87.20
2019-05-02T10:12:32.118Z,84.17
2019-05-02T10:14:04.807Z,80.63
2019-05-02T10:15:37.052Z,80.57
2019-05-02T10:17:09.420Z,81.77
2019-05-02T10:18:43.073Z,76.23
2019-05-02T10:20:15.937Z,77.90
2019-05-02T10:21:52.447Z,84.93
2019-05-02T10:23:23.437Z,82.43
2019-05-02T10:24:55.917Z,87.03
2019-05-02T10:26:28.096Z,80.63
2019-05-02T10:28:02.120Z,82.43
2019-05-02T10:29:34.594Z,78.43
2019-05-02T10:31:06.826Z,75.50
2019-05-02T10:32:39.047Z,76.87
2019-05-02T10:34:16.293Z,77.17
2019-05-02T10:35:47.075Z,77.03
2019-05-02T10:37:19.171Z,73.63
2019-05-02T10:38:54.786Z,73.30
2019-05-02T10:40:25.619Z,78.07
2019-05-02T10:41:57.767Z,76.90
2019-05-02T10:43:30.074Z,70.57
2019-05-02T10:45:02.851Z,71.17
2019-05-02T10:46:53.465Z,70.13
2019-05-02T10:48:28.462Z,74.47
2019-05-02T10:50:05.108Z,70.30
2019-05-02T10:51:41.930Z,73.53
2019-05-02T10:53:15.729Z,70.43
2019-05-02T10:54:45.651Z,70.63
2019-05-02T10:56:17.850Z,68.23
2019-05-02T10:57:49.914Z,61.30
2019-05-02T10:59:22.184Z,61.47
2019-05-02T11:00:54.548Z,65.33
2019-05-02T11:02:55.240Z,67.53
2019-05-02T11:04:29.370Z,72.17
2019-05-02T11:06:05.427Z,64.97
2019-05-02T11:07:35.977Z,64.67
2019-05-02T11:09:11.893Z,60.70
2019-05-02T11:10:44.607Z,60.87
2019-05-02T11:12:25.845Z,62.63
2019-05-02T11:14:22.518Z,63.30
2019-05-02T11:16:23.276Z,59.97
2019-05-02T11:17:55.447Z,55.43
2019-05-02T11:19:42.010Z,60.20
2019-05-02T11:21:14.253Z,53.07
2019-05-02T11:22:46.313Z,59.23
2019-05-02T11:24:18.458Z,49.40
2019-05-02T11:25:52.504Z,47.77
2019-05-02T11:27:24.570Z,49.33
2019-05-02T11:28:56.635Z,45.13
2019-05-02T11:30:28.885Z,48.50
2019-05-02T11:32:02.770Z,44.10
2019-05-02T11:33:35.197Z,48.03
2019-05-02T11:35:07.459Z,44.73
2019-05-02T11:36:41.507Z,44.57
2019-05-02T11:38:35.034Z,45.83
2019-05-02T11:39:52.906Z,41.57
2019-05-02T11:41:22.415Z,43.00
2019-05-02T11:42:57.177Z,39.43
2019-05-02T11:44:29.134Z,42.33
2019-05-02T11:46:06.952Z,40.63
2019-05-02T11:47:35.258Z,41.50
2019-05-02T11:49:07.336Z,42.30
2019-05-02T11:50:39.486Z,41.10
2019-05-02T11:52:11.899Z,40.63
2019-05-02T11:53:44.244Z,38.20
2019-05-02T11:55:19.122Z,43.17
2019-05-02T11:56:51.306Z,42.40
2019-05-02T11:58:24.519Z,41.27
2019-05-02T11:59:59.345Z,43.97
2019-05-02T12:01:37.032Z,45.17
2019-05-02T12:03:22.755Z,41.87
2019-05-02T12:04:55.649Z,42.60
2019-05-02T12:06:27.833Z,42.63
2019-05-02T12:08:07.305Z,43.07
2019-05-02T12:09:34.168Z,38.10
2019-05-02T12:11:08.423Z,38.60
2019-05-02T12:12:40.549Z,33.97
2019-05-02T12:14:12.822Z,39.50
2019-05-02T12:15:45.053Z,42.07
2019-05-02T12:17:17.280Z,47.17
2019-05-02T12:18:49.463Z,44.10
2019-05-02T12:20:22.797Z,42.83
2019-05-02T12:21:55.639Z,43.40
2019-05-02T12:23:27.840Z,45.27
2019-05-02T12:25:00.072Z,44.97
2019-05-02T12:26:32.538Z,46.20
2019-05-02T12:28:05.506Z,45.63
2019-05-02T12:29:37.604Z,44.57
2019-05-02T12:31:24.666Z,43.83
2019-05-02T12:32:56.936Z,50.60
2019-05-02T12:34:29.083Z,46.50
2019-05-02T12:36:02.617Z,45.43
2019-05-02T12:37:34.923Z,48.77
2019-05-02T12:39:07.662Z,43.80
2019-05-02T12:40:42.031Z,48.03
2019-05-02T12:42:14.169Z,46.33
2019-05-02T12:43:46.594Z,49.27
2019-05-02T12:45:18.914Z,42.80
2019-05-02T12:46:51.817Z,46.77
2019-05-02T12:48:24.108Z,47.87
2019-05-02T12:49:56.183Z,46.47
2019-05-02T12:51:28.433Z,51.70
2019-05-02T12:53:02.798Z,46.90
2019-05-02T12:54:34.584Z,44.97
2019-05-02T12:56:06.808Z,46.67
2019-05-02T12:57:39.112Z,47.20
2019-05-02T12:59:11.953Z,44.63
2019-05-02T13:00:44.296Z,47.07
2019-05-02T13:02:27.712Z,44.90
2019-05-02T13:04:08.460Z,45.63
2019-05-02T13:05:42.482Z,41.63
2019-05-02T13:07:14.609Z,46.47
2019-05-02T13:08:49.240Z,43.30
2019-05-02T13:10:33.387Z,41.77
2019-05-02T13:12:13.289Z,36.23
2019-05-02T13:13:45.877Z,38.30
2019-05-02T13:15:18.102Z,35.93
2019-05-02T13:16:53.425Z,36.73
2019-05-02T13:18:27.252Z,32.77
2019-05-02T13:20:01.500Z,34.83
2019-05-02T13:21:41.877Z,34.43
2019-05-02T13:23:43.986Z,33.93
2019-05-02T13:25:18.824Z,40.93
2019-05-02T13:26:52.011Z,36.67
2019-05-02T13:28:25.762Z,38.63
2019-05-02T13:29:58.379Z,38.70
2019-05-02T13:31:36.679Z,32.50
2019-05-02T13:33:12.269Z,26.67
2019-05-02T13:34:54.157Z,27.70
2019-05-02T13:36:49.376Z,28.53
2019-05-02T13:38:22.363Z,29.83
2019-05-02T13:40:03.588Z,31.70
2019-05-02T13:41:35.662Z,28.77
2019-05-02T13:43:07.932Z,30.53
2019-05-02T13:44:47.536Z,28.67
2019-05-02T13:46:22.205Z,29.80
2019-05-02T13:47:54.679Z,26.47
2019-05-02T13:49:26.836Z,25.00
2019-05-02T13:50:59.169Z,28.63
2019-05-02T13:52:33.203Z,24.57
2019-05-02T13:54:05.716Z,24.13
2019-05-02T13:55:43.416Z,24.07
2019-05-02T13:57:15.532Z,23.50
2019-05-02T13:58:47.661Z,23.87
2019-05-02T14:00:26.943Z,21.73
2019-05-02T14:02:00.338Z,24.20
2019-05-02T14:03:32.617Z,20.70
2019-05-02T14:05:07.376Z,18.53
2019-05-02T14:06:39.432Z,23.00
2019-05-02T14:08:36.882Z,23.23
2019-05-02T14:10:19.730Z,24.53
2019-05-02T14:12:17.292Z,22.53
2019-05-02T14:13:49.563Z,22.17
2019-05-02T14:15:23.988Z,18.43
2019-05-02T14:16:56.083Z,19.70
2019-05-02T14:18:29.477Z,20.63
2019-05-02T14:20:10.397Z,21.13
2019-05-02T14:21:36.339Z,17.07
2019-05-02T14:23:08.548Z,14.43
2019-05-02T14:24:42.175Z,14.10
2019-05-02T14:26:26.930Z,14.93
2019-05-02T14:27:53.740Z,15.80
2019-05-02T14:29:22.962Z,16.53
2019-05-02T14:30:55.220Z,13.70
2019-05-02T14:32:27.351Z,18.23
2019-05-02T14:34:17.465Z,15.60
2019-05-02T14:35:49.756Z,12.80
2019-05-02T14:37:22.711Z,17.13
2019-05-02T14:38:55.139Z,14.07
2019-05-02T14:40:31.918Z,13.13
2019-05-02T14:42:04.347Z,10.80
2019-05-02T14:43:52.614Z,11.43
2019-05-02T14:45:30.721Z,10.70
2019-05-02T14:46:58.290Z,12.27
2019-05-02T14:48:41.092Z,12.67
2019-05-02T14:50:23.165Z,10.33
2019-05-02T14:51:44.063Z,9.30
2019-05-02T14:53:16.802Z,10.83
2019-05-02T14:54:51.888Z,10.77
2019-05-02T14:56:58.908Z,11.87
2019-05-02T14:58:32.473Z,11.80
2019-05-02T15:00:06.105Z,12.97
2019-05-02T15:01:38.200Z,12.33
2019-05-02T15:03:12.811Z,10.93
2019-05-02T15:04:48.813Z,12.80
2019-05-02T15:06:19.242Z,12.47
2019-05-02T15:07:51.893Z,11.60
2019-05-02T15:09:26.767Z,13.47
2019-05-02T15:10:58.319Z,13.33
2019-05-02T15:12:32.434Z,12.00
2019-05-02T15:14:04.699Z,13.83
2019-05-02T15:15:40.904Z,14.43
2019-05-02T15:17:12.078Z,12.53
2019-05-02T15:18:47.517Z,11.80
2019-05-02T15:20:18.562Z,12.00
2019-05-02T15:21:52.519Z,12.47
2019-05-02T15:23:24.886Z,14.03
2019-05-02T15:24:57.181Z,12.90
2019-05-02T15:26:31.392Z,18.83
2019-05-02T15:28:03.451Z,13.97
2019-05-02T15:29:35.716Z,17.23
2019-05-02T15:31:12.384Z,15.90
2019-05-02T15:32:52.089Z,13.87
2019-05-02T15:34:36.969Z,11.97
2019-05-02T15:36:07.652Z,16.03
2019-05-02T15:37:41.650Z,13.50
2019-05-02T15:40:51.373Z,11.80
2019-05-02T15:42:24.625Z,10.93
2019-05-02T15:43:56.481Z,13.43
2019-05-02T15:45:29.084Z,13.20
2019-05-02T15:47:03.467Z,12.83
2019-05-02T15:48:35.392Z,12.60
2019-05-02T15:50:07.485Z,12.30
2019-05-02T15:51:43.725Z,12.30
2019-05-02T15:53:39.157Z,11.60
2019-05-02T15:55:11.621Z,11.43
2019-05-02T15:57:00.331Z,10.83
2019-05-02T15:58:27.956Z,14.33
2019-05-02T16:00:01.635Z,12.07
2019-05-02T16:01:48.828Z,13.77
2019-05-02T16:03:22.841Z,14.20
2019-05-02T16:04:57.025Z,10.47
2019-05-02T16:06:31.569Z,14.17
2019-05-02T16:08:07.258Z,10.90
2019-05-02T16:09:37.891Z,10.60
2019-05-02T16:11:13.757Z,13.73
2019-05-02T16:12:46.176Z,11.90
2019-05-02T16:14:18.338Z,10.87
2019-05-02T16:15:50.455Z,13.60
2019-05-02T16:17:26.584Z,13.63
2019-05-02T16:18:58.665Z,10.00
2019-05-02T16:20:49.378Z,11.50
2019-05-02T16:22:23.868Z,10.40
2019-05-02T16:24:14.873Z,11.60
2019-05-02T16:25:47.292Z,12.50
2019-05-02T16:27:25.857Z,11.13
2019-05-02T16:28:55.569Z,13.53
2019-05-02T16:30:27.888Z,12.63
2019-05-02T16:32:07.917Z,12.93
2019-05-02T16:33:41.711Z,15.10
2019-05-02T16:35:17.222Z,13.00
2019-05-02T16:36:51.854Z,14.50
2019-05-02T16:38:26.776Z,16.13
2019-05-02T16:39:58.260Z,14.73
2019-05-02T16:41:32.563Z,14.53
2019-05-02T16:43:04.983Z,13.10
2019-05-02T16:44:37.232Z,16.23
2019-05-02T16:46:11.867Z,13.43
2019-05-02T16:47:43.695Z,13.97
2019-05-02T16:49:18.665Z,16.33
2019-05-02T16:50:50.162Z,13.03
2019-05-02T16:52:22.436Z,17.40
2019-05-02T16:53:55.999Z,18.47
2019-05-02T16:55:28.946Z,18.83
2019-05-02T16:57:01.761Z,21.50
2019-05-02T16:58:37.943Z,21.50
2019-05-02T17:00:11.236Z,21.20
2019-05-02T17:01:43.050Z,21.77
2019-05-02T17:03:17.455Z,20.17
2019-05-02T17:04:54.269Z,22.70
2019-05-02T17:06:26.074Z,23.83
2019-05-02T17:08:19.919Z,23.57
2019-05-02T17:10:03.353Z,24.20
2019-05-02T17:11:38.399Z,21.23
2019-05-02T17:13:12.500Z,24.77
2019-05-02T17:15:04.148Z,25.03
2019-05-02T17:16:36.398Z,25.47
2019-05-02T17:18:13.430Z,23.97
2019-05-02T17:19:42.681Z,23.20
2019-05-02T17:21:14.900Z,23.00
2019-05-02T17:22:50.212Z,21.73
2019-05-02T17:24:24.606Z,21.37
2019-05-02T17:25:55.141Z,24.53
2019-05-02T17:27:27.432Z,21.53
2019-05-02T17:28:59.586Z,22.33
2019-05-02T17:30:38.685Z,22.20
2019-05-02T17:32:05.968Z,21.73
2019-05-02T17:33:38.247Z,26.20
2019-05-02T17:35:14.019Z,20.60
2019-05-02T17:36:45.863Z,20.43
2019-05-02T17:38:19.085Z,21.87
2019-05-02T17:39:52.505Z,21.80
2019-05-02T17:41:24.805Z,24.53
2019-05-02T17:43:01.685Z,22.13
2019-05-02T17:44:31.160Z,22.03
2019-05-02T17:46:04.584Z,24.17
2019-05-02T17:47:37.692Z,24.70
2019-05-02T17:49:11.804Z,24.00
2019-05-02T17:51:03.860Z,25.27
2019-05-02T17:52:42.718Z,25.20
2019-05-02T17:54:17.464Z,22.37
2019-05-02T17:55:49.324Z,24.83
2019-05-02T17:57:21.597Z,23.30
2019-05-02T17:58:58.149Z,25.23
2019-05-02T18:00:30.085Z,21.43
2019-05-02T18:02:06.635Z,23.60
2019-05-02T18:03:36.641Z,21.87
2019-05-02T18:05:08.895Z,26.83
2019-05-02T18:06:41.777Z,22.60
2019-05-02T18:08:14.892Z,22.10
2019-05-02T18:09:47.307Z,23.20
2019-05-02T18:11:19.405Z,23.03
2019-05-02T18:12:56.736Z,20.47
2019-05-02T18:14:25.910Z,20.60
2019-05-02T18:15:58.277Z,22.27
2019-05-02T18:17:31.785Z,20.23
2019-05-02T18:19:04.218Z,21.03
2019-05-02T18:20:37.121Z,21.23
2019-05-02T18:22:21.053Z,21.27
2019-05-02T18:23:44.621Z,21.27
2019-05-02T18:25:23.611Z,19.73
2019-05-02T18:26:51.704Z,20.00
2019-05-02T18:28:26.405Z,18.83
2019-05-02T18:29:58.300Z,19.17
2019-05-02T18:31:30.550Z,18.03
2019-05-02T18:33:07.081Z,19.63
2019-05-02T18:34:36.884Z,19.57
2019-05-02T18:36:09.178Z,16.10
2019-05-02T18:37:45.088Z,16.77
2019-05-02T18:39:15.289Z,16.30
2019-05-02T18:40:47.609Z,19.43
2019-05-02T18:42:23.808Z,17.10
2019-05-02T18:43:53.868Z,16.97
2019-05-02T18:45:28.583Z,18.43
2019-05-02T18:47:02.296Z,16.50
2019-05-02T18:48:36.539Z,16.97
2019-05-02T18:50:28.480Z,17.73
2019-05-02T18:52:01.800Z,18.63
2019-05-02T18:53:34.183Z,18.50
2019-05-02T18:55:06.540Z,17.93
2019-05-02T18:56:44.264Z,18.33
2019-05-02T18:58:13.022Z,22.80
2019-05-02T18:59:45.423Z,22.17
2019-05-02T19:01:20.756Z,22.97
2019-05-02T19:02:54.588Z,23.33
2019-05-02T19:04:35.272Z,22.33
2019-05-02T19:06:02.248Z,22.13
2019-05-02T19:07:35.887Z,25.08
2019-05-02T19:09:10.279Z,21.67
2019-05-02T19:11:01.278Z,22.30
2019-05-02T19:12:22.510Z,21.17
2019-05-02T19:13:52.715Z,20.33
2019-05-02T19:15:25.011Z,22.42
2019-05-02T19:16:58.131Z,20.93
2019-05-02T19:18:33.129Z,19.27
2019-05-02T19:20:14.548Z,19.07
2019-05-02T19:21:45.527Z,17.82
2019-05-02T19:23:18.050Z,17.80
2019-05-02T19:24:52.264Z,18.10
2019-05-02T19:26:24.348Z,17.77
2019-05-02T19:28:03.163Z,16.65
2019-05-02T19:29:35.419Z,15.65
2019-05-02T19:31:07.670Z,18.17
2019-05-02T19:32:41.610Z,16.42
2019-05-02T19:34:16.694Z,17.85
2019-05-02T19:35:50.001Z,17.87
2019-05-02T19:37:22.223Z,15.45
2019-05-02T19:38:57.448Z,17.73
2019-05-02T19:40:28.627Z,15.28
2019-05-02T19:42:01.769Z,14.98
2019-05-02T19:43:34.973Z,14.20
2019-05-02T19:45:11.781Z,14.43
2019-05-02T19:46:42.179Z,14.70
2019-05-02T19:48:14.685Z,14.10
2019-05-02T19:49:52.422Z,13.93
2019-05-02T19:51:23.963Z,12.70
2019-05-02T19:53:02.143Z,12.00
2019-05-02T19:54:33.912Z,14.85
2019-05-02T19:56:06.673Z,11.65
2019-05-02T19:57:38.819Z,10.32
2019-05-02T19:59:12.008Z,9.15
2019-05-02T20:00:46.282Z,10.78
2019-05-02T20:02:18.664Z,8.93
2019-05-02T20:03:52.063Z,8.83
2019-05-02T20:05:25.742Z,9.33
2019-05-02T20:06:58.141Z,9.10
2019-05-02T20:08:32.372Z,9.13